Time;durP1;ratioP1;P1;durP2;ratioP2;P2;SDS_P1;SDS_P2;PMS_P1;PMS_P2;Temp;Humidity;BMP_temperature;BMP_pressure;BME280_temperature;BME280_humidity;BME280_pressure;Samples;Min_cycle;Max_cycle;Signal;HPM_P1;HPM_P2
2024/01/02 00:00:17;;;;;;;85.27;26.73;;;;;;;2.79;100.00;99195.78;4239808;28;20250;-72
2024/01/02 00:02:44;;;;;;;73.47;24.73;;;;;;;2.78;100.00;99202.09;4236060;28;20560;-73
2024/01/02 00:05:10;;;;;;;72.40;25.30;;;;;;;2.79;100.00;99205.63;4244425;28;20235;-71
2024/01/02 00:07:37;;;;;;;72.33;24.40;;;;;;;2.73;100.00;99198.09;4244683;28;20234;-71
2024/01/02 00:10:04;;;;;;;65.90;24.43;;;;;;;2.81;100.00;99201.84;4225141;28;20343;-72
2024/01/02 00:12:31;;;;;;;86.70;25.60;;;;;;;2.89;100.00;99195.00;4244833;28;20594;-72
2024/01/02 00:14:57;;;;;;;75.80;23.77;;;;;;;2.80;100.00;99196.63;4241947;28;20235;-70
2024/01/02 00:17:24;;;;;;;82.57;26.57;;;;;;;2.83;100.00;99197.22;4232240;28;20241;-71
2024/01/02 00:19:51;;;;;;;73.30;25.07;;;;;;;2.87;100.00;99204.97;4232955;28;21956;-71
2024/01/02 00:22:17;;;;;;;80.60;25.70;;;;;;;2.95;100.00;99206.03;4226592;28;20320;-72
2024/01/02 00:24:44;;;;;;;70.43;24.97;;;;;;;2.95;100.00;99205.19;4237102;28;20243;-69
2024/01/02 00:27:11;;;;;;;73.60;24.93;;;;;;;2.84;100.00;99209.59;4226196;28;22188;-70
2024/01/02 00:29:37;;;;;;;74.93;24.93;;;;;;;2.85;100.00;99213.13;4230134;28;20273;-74
2024/01/02 00:32:04;;;;;;;75.90;24.57;;;;;;;2.86;100.00;99212.16;4235031;28;23197;-71
2024/01/02 00:34:31;;;;;;;67.30;23.07;;;;;;;2.83;100.00;99207.06;4238059;28;20240;-72
2024/01/02 00:36:57;;;;;;;75.20;25.10;;;;;;;2.82;100.00;99206.22;4237018;28;20237;-73
2024/01/02 00:39:24;;;;;;;74.37;24.27;;;;;;;2.90;100.00;99210.91;4238582;28;22108;-71
2024/01/02 00:41:51;;;;;;;65.83;22.30;;;;;;;2.89;100.00;99209.22;4239020;28;20245;-72
2024/01/02 00:44:17;;;;;;;70.00;24.40;;;;;;;2.89;100.00;99219.06;4223927;28;20265;-70
2024/01/02 00:46:44;;;;;;;66.10;22.33;;;;;;;2.89;100.00;99209.22;4231850;28;20231;-72
2024/01/02 00:49:11;;;;;;;70.03;24.13;;;;;;;2.90;100.00;99221.59;4226618;28;20931;-71
2024/01/02 00:51:37;;;;;;;68.03;23.60;;;;;;;2.85;100.00;99213.13;4220977;28;22572;-72
2024/01/02 00:54:04;;;;;;;73.17;22.63;;;;;;;2.85;100.00;99213.97;4236476;28;20238;-71
2024/01/02 00:56:31;;;;;;;63.07;23.00;;;;;;;2.90;100.00;99213.59;4231348;28;20565;-70
2024/01/02 00:58:57;;;;;;;68.63;22.80;;;;;;;2.95;100.00;99218.56;4227584;28;20319;-69
2024/01/02 01:01:24;;;;;;;74.77;23.50;;;;;;;2.99;100.00;99218.16;4232566;28;20253;-71
2024/01/02 01:03:50;;;;;;;71.37;23.40;;;;;;;2.93;100.00;99220.50;4232455;28;20234;-69
2024/01/02 01:06:17;;;;;;;67.07;23.73;;;;;;;2.90;100.00;99226.94;4226730;28;23487;-73
2024/01/02 01:08:44;;;;;;;73.60;22.60;;;;;;;2.91;100.00;99217.13;4229637;28;20239;-70
2024/01/02 01:11:12;;;;;;;65.50;20.60;;;;;;;2.85;100.00;99222.00;4219474;28;20328;-73
2024/01/02 01:13:39;;;;;;;65.77;20.80;;;;;;;2.89;100.00;99214.56;4232983;28;21409;-73
2024/01/02 01:16:05;;;;;;;68.90;21.97;;;;;;;2.91;100.00;99215.28;4225257;28;20240;-72
2024/01/02 01:18:32;;;;;;;79.70;23.37;;;;;;;2.89;100.00;99213.72;4233299;28;20383;-71
2024/01/02 01:20:59;;;;;;;70.63;21.53;;;;;;;2.85;100.00;99215.81;4231333;28;21760;-73
2024/01/02 01:23:25;;;;;;;68.33;22.83;;;;;;;2.91;100.00;99215.28;4232430;28;21964;-71
2024/01/02 01:25:52;;;;;;;61.70;22.63;;;;;;;3.00;100.00;99208.31;4230765;28;20234;-71
2024/01/02 01:28:19;;;;;;;64.70;22.57;;;;;;;2.86;100.00;99204.16;4211620;28;20230;-73
2024/01/02 01:30:45;;;;;;;77.10;22.23;;;;;;;2.87;100.00;99204.97;4235041;28;20427;-72
2024/01/02 01:33:12;;;;;;;57.70;21.50;;;;;;;2.89;100.00;99209.22;4233457;28;21650;-70
2024/01/02 01:35:38;;;;;;;76.57;22.53;;;;;;;2.92;100.00;99203.63;4229549;28;20242;-73
2024/01/02 01:38:05;;;;;;;2.27;1.43;;;;;;;2.88;100.00;99212.03;4234440;28;26125;-72
2024/01/02 01:40:32;;;;;;;2.83;1.97;;;;;;;2.85;100.00;99216.66;4236853;28;20234;-70
2024/01/02 01:42:58;;;;;;;6.20;1.70;;;;;;;2.90;100.00;99213.59;4239753;28;20267;-71
2024/01/02 01:45:25;;;;;;;3.37;1.63;;;;;;;2.88;100.00;99204.84;4231821;28;20345;-70
2024/01/02 01:47:52;;;;;;;0.50;0.40;;;;;;;2.87;100.00;99213.00;4240464;28;20231;-72
2024/01/02 01:50:18;;;;;;;5.87;1.17;;;;;;;2.86;100.00;99206.81;4234963;28;20972;-72
2024/01/02 01:52:46;;;;;;;0.00;0.00;;;;;;;2.89;100.00;99211.06;4225905;28;20233;-70
2024/01/02 01:55:13;;;;;;;4.27;1.83;;;;;;;2.83;100.00;99207.91;4233477;28;20231;-74
2024/01/02 01:57:41;;;;;;;1.17;1.17;;;;;;;2.83;100.00;99215.91;4237232;28;20474;-71
2024/01/02 02:00:08;;;;;;;6.93;1.93;;;;;;;2.82;100.00;99205.38;4236658;28;20331;-70
2024/01/02 02:02:35;;;;;;;0.00;0.00;;;;;;;2.84;100.00;99208.75;4219106;28;20242;-70
2024/01/02 02:05:02;;;;;;;4.73;3.63;;;;;;;2.84;100.00;99209.59;4237374;28;20329;-70
2024/01/02 02:07:30;;;;;;;1.07;0.50;;;;;;;2.88;100.00;99210.19;4235680;28;20373;-69
2024/01/02 02:09:57;;;;;;;1.70;1.57;;;;;;;2.85;100.00;99216.66;4237775;28;21366;-70
2024/01/02 02:12:23;;;;;;;0.63;0.63;;;;;;;2.90;100.00;99210.09;4253663;28;20249;-72
2024/01/02 02:14:51;;;;;;;3.30;2.53;;;;;;;2.89;100.00;99214.56;4231982;28;20311;-70
2024/01/02 02:17:37;;;;;;;2.80;1.03;;;;;;;2.85;100.00;99213.97;4231996;28;20713;-70
2024/01/02 02:20:05;;;;;;;4.83;2.10;;;;;;;2.85;100.00;99218.47;4255913;28;22447;-71
2024/01/02 02:22:37;;;;;;;2.33;1.30;;;;;;;2.89;100.00;99214.56;4233022;28;20323;-73
2024/01/02 02:25:05;;;;;;;1.30;1.10;;;;;;;2.94;100.00;99214.19;4235692;28;20346;-71
2024/01/02 02:27:33;;;;;;;13.60;3.53;;;;;;;2.97;100.00;99217.44;4241594;28;21209;-71
2024/01/02 02:29:59;;;;;;;0.53;0.53;;;;;;;3.03;100.00;99210.75;4234752;28;21608;-72
2024/01/02 02:32:26;;;;;;;0.30;0.30;;;;;;;2.98;100.00;99212.97;4226507;28;20248;-70
2024/01/02 02:34:53;;;;;;;2.60;1.73;;;;;;;2.93;100.00;99218.69;4232370;28;20230;-71
2024/01/02 02:37:20;;;;;;;0.10;0.10;;;;;;;2.94;100.00;99207.03;4243615;28;20238;-73
2024/01/02 02:39:47;;;;;;;2.13;2.03;;;;;;;3.03;100.00;99216.09;4237587;28;20343;-72
2024/01/02 02:42:13;;;;;;;0.60;0.60;;;;;;;3.04;100.00;99209.78;4233133;28;22409;-71
2024/01/02 02:44:42;;;;;;;0.10;0.10;;;;;;;3.05;100.00;99218.63;4243768;28;20242;-72
2024/01/02 02:47:10;;;;;;;0.10;0.10;;;;;;;3.07;100.00;99212.16;4236405;28;20374;-71
2024/01/02 02:49:37;;;;;;;10.70;2.13;;;;;;;3.04;100.00;99214.25;4243604;28;22763;-70
2024/01/02 02:52:04;;;;;;;0.00;0.00;;;;;;;3.05;100.00;99210.59;4240863;28;20434;-71
2024/01/02 02:54:31;;;;;;;0.50;0.50;;;;;;;3.13;100.00;99214.34;4240571;28;20230;-73
2024/01/02 02:56:58;;;;;;;4.97;1.03;;;;;;;3.11;100.00;99218.09;4246367;28;20239;-71
2024/01/02 02:59:24;;;;;;;0.53;0.50;;;;;;;3.13;100.00;99208.13;4246342;28;21515;-70
2024/01/02 03:01:51;;;;;;;10.50;7.93;;;;;;;3.12;100.00;99211.78;4236623;28;21578;-69
2024/01/02 03:04:18;;;;;;;1.30;1.20;;;;;;;3.19;100.00;99209.44;4239651;28;21408;-71
2024/01/02 03:06:44;;;;;;;12.10;3.63;;;;;;;3.10;100.00;99211.06;4242423;28;21055;-70
2024/01/02 03:09:11;;;;;;;0.00;0.00;;;;;;;3.09;100.00;99209.38;4238041;28;20376;-72
2024/01/02 03:11:37;;;;;;;0.70;0.70;;;;;;;3.12;100.00;99206.44;4233503;28;20405;-71
2024/01/02 03:14:04;;;;;;;1.40;1.07;;;;;;;3.12;100.00;99211.78;4246703;28;20407;-73
2024/01/02 03:16:31;;;;;;;1.80;1.70;;;;;;;3.09;100.00;99212.06;4240412;28;20238;-70
2024/01/02 03:18:57;;;;;;;1.03;0.97;;;;;;;3.10;100.00;99211.91;4238704;28;20230;-73
2024/01/02 03:21:28;;;;;;;0.00;0.00;;;;;;;3.21;100.00;99216.34;4229890;28;20234;-72
2024/01/02 03:23:55;;;;;;;0.00;0.00;;;;;;;3.13;100.00;99209.00;4239809;28;20314;-71
2024/01/02 03:26:22;;;;;;;7.70;1.83;;;;;;;3.13;100.00;99208.13;4229532;28;20242;-72
2024/01/02 03:28:49;;;;;;;0.00;0.00;;;;;;;3.08;100.00;99197.00;4239241;28;20238;-70
2024/01/02 03:31:15;;;;;;;0.77;0.30;;;;;;;3.11;100.00;99202.91;4238189;28;20260;-69
2024/01/02 03:33:42;;;;;;;0.00;0.00;;;;;;;3.10;100.00;99211.06;4241160;28;20232;-70
2024/01/02 03:36:13;;;;;;;3.30;1.60;;;;;;;3.09;100.00;99202.19;4228688;28;21593;-70
2024/01/02 03:38:39;;;;;;;0.00;0.00;;;;;;;3.10;100.00;99201.22;4239395;28;20290;-70
2024/01/02 03:41:06;;;;;;;0.93;0.93;;;;;;;3.18;100.00;99203.22;4231680;28;21150;-72
2024/01/02 03:43:33;;;;;;;0.30;0.30;;;;;;;3.16;100.00;99207.88;4237913;28;23553;-70
2024/01/02 03:45:59;;;;;;;1.30;1.20;;;;;;;3.13;100.00;99209.00;4259115;28;20293;-72
2024/01/02 03:48:26;;;;;;;0.00;0.00;;;;;;;3.17;100.00;99202.41;4237400;28;21834;-71
2024/01/02 03:50:53;;;;;;;0.00;0.00;;;;;;;3.18;100.00;99200.56;4231323;28;21320;-69
2024/01/02 03:53:20;;;;;;;0.43;0.37;;;;;;;3.17;100.00;99202.41;4243571;28;22094;-71
2024/01/02 03:55:47;;;;;;;5.53;2.70;;;;;;;3.17;100.00;99204.22;4243090;28;23354;-72
2024/01/02 03:58:14;;;;;;;0.00;0.00;;;;;;;3.19;100.00;99196.91;4239682;28;20235;-70
2024/01/02 04:00:40;;;;;;;0.30;0.30;;;;;;;3.19;100.00;99207.59;4231881;28;20271;-69
2024/01/02 04:03:07;;;;;;;4.03;2.03;;;;;;;3.17;100.00;99202.41;4242391;28;20230;-72
2024/01/02 04:05:34;;;;;;;2.17;0.93;;;;;;;3.15;100.00;99195.50;4239982;28;20282;-70
2024/01/02 04:08:01;;;;;;;0.10;0.10;;;;;;;3.20;100.00;99201.28;4236436;28;20289;-70
2024/01/02 04:10:27;;;;;;;0.20;0.20;;;;;;;3.20;100.00;99203.13;4236343;28;20234;-74
2024/01/02 04:12:55;;;;;;;3.33;2.27;;;;;;;3.19;100.00;99209.44;4240759;28;20235;-71
2024/01/02 04:15:21;;;;;;;15.77;4.47;;;;;;;3.20;100.00;99200.44;4247957;28;25652;-70
2024/01/02 04:17:48;;;;;;;0.67;0.37;;;;;;;3.21;100.00;99202.97;4255069;28;21095;-73
2024/01/02 04:20:15;;;;;;;0.10;0.10;;;;;;;3.22;100.00;99198.47;4250235;28;21645;-73
2024/01/02 04:22:41;;;;;;;6.67;2.53;;;;;;;3.26;100.00;99200.75;4239825;28;20290;-70
2024/01/02 04:25:08;;;;;;;1.13;0.30;;;;;;;3.24;100.00;99194.72;4238653;28;20574;-71
2024/01/02 04:27:35;;;;;;;12.23;3.70;;;;;;;3.26;100.00;99198.06;4244205;28;20876;-73
2024/01/02 04:30:02;;;;;;;2.60;1.03;;;;;;;3.27;100.00;99204.28;4238314;28;20275;-70
2024/01/02 04:32:29;;;;;;;0.37;0.37;;;;;;;3.23;100.00;99202.84;4225479;28;21239;-70
2024/01/02 04:34:56;;;;;;;0.00;0.00;;;;;;;3.29;100.00;99200.50;4251348;28;21592;-71
2024/01/02 04:37:22;;;;;;;1.03;0.77;;;;;;;3.27;100.00;99201.63;4233272;28;20792;-70
2024/01/02 04:39:49;;;;;;;7.07;1.97;;;;;;;3.24;100.00;99202.72;4241803;28;20234;-72
2024/01/02 04:42:15;;;;;;;0.43;0.20;;;;;;;3.24;100.00;99200.06;4241765;28;20238;-71
2024/01/02 04:44:42;;;;;;;0.20;0.20;;;;;;;3.26;100.00;99191.91;4244828;28;22800;-72
2024/01/02 04:47:08;;;;;;;0.00;0.00;;;;;;;3.25;100.00;99201.72;4234981;28;21182;-70
2024/01/02 04:49:35;;;;;;;0.17;0.17;;;;;;;3.26;100.00;99195.41;4229977;28;20233;-70
2024/01/02 04:52:02;;;;;;;1.60;1.27;;;;;;;3.27;100.00;99191.75;4243065;28;20238;-71
2024/01/02 04:54:28;;;;;;;0.30;0.30;;;;;;;3.24;100.00;99194.72;4249035;28;20301;-69
2024/01/02 04:56:56;;;;;;;1.50;0.60;;;;;;;3.26;100.00;99197.25;4227876;28;22635;-69
2024/01/02 04:59:23;;;;;;;0.67;0.67;;;;;;;3.27;100.00;99194.44;4233390;28;22059;-72
2024/01/02 05:01:50;;;;;;;0.00;0.00;;;;;;;3.30;100.00;99196.00;4243936;28;22291;-70
2024/01/02 05:04:16;;;;;;;0.10;0.10;;;;;;;3.31;100.00;99203.91;4226532;28;20235;-71
2024/01/02 05:06:43;;;;;;;0.47;0.47;;;;;;;3.31;100.00;99205.72;4229471;28;20238;-71
2024/01/02 05:09:10;;;;;;;0.97;0.97;;;;;;;3.33;100.00;99201.09;4230075;28;20858;-71
2024/01/02 05:11:37;;;;;;;2.37;1.63;;;;;;;3.31;100.00;99205.72;4232324;28;20277;-72
2024/01/02 05:14:04;;;;;;;10.37;2.37;;;;;;;3.30;100.00;99194.19;4236075;28;20298;-71
2024/01/02 05:16:30;;;;;;;9.27;1.73;;;;;;;3.36;100.00;99195.47;4234444;28;20234;-70
2024/01/02 05:18:57;;;;;;;8.47;4.47;;;;;;;3.35;100.00;99209.84;4235825;28;20234;-71
2024/01/02 05:21:24;;;;;;;1.83;0.73;;;;;;;3.36;100.00;99203.47;4229901;28;20233;-72
2024/01/02 05:23:50;;;;;;;2.13;1.80;;;;;;;3.47;100.00;99203.41;4236576;28;20242;-73
2024/01/02 05:26:17;;;;;;;0.20;0.20;;;;;;;3.46;100.00;99201.72;4232453;28;20481;-72
2024/01/02 05:28:44;;;;;;;0.00;0.00;;;;;;;3.39;100.00;99200.56;4232345;28;21808;-72
2024/01/02 05:31:10;;;;;;;1.83;0.83;;;;;;;3.39;100.00;99200.56;4242586;28;20235;-71
2024/01/02 05:33:37;;;;;;;1.73;1.03;;;;;;;3.43;100.00;99206.50;4241057;28;22345;-72
2024/01/02 05:36:04;;;;;;;0.00;0.00;;;;;;;3.43;100.00;99214.50;4234574;28;20244;-70
2024/01/02 05:38:31;;;;;;;12.37;4.27;;;;;;;3.42;100.00;99216.34;4234966;28;21761;-70
2024/01/02 05:40:57;;;;;;;1.93;0.73;;;;;;;3.44;100.00;99208.19;4248449;28;21795;-72
2024/01/02 05:43:24;;;;;;;4.90;2.37;;;;;;;3.39;100.00;99213.94;4247434;28;20226;-71
2024/01/02 05:45:50;;;;;;;1.23;0.57;;;;;;;3.52;100.00;99211.06;4233480;28;20243;-69
2024/01/02 05:48:17;;;;;;;4.63;2.03;;;;;;;3.48;100.00;99214.97;4238882;28;20230;-71
2024/01/02 05:50:44;;;;;;;4.37;2.20;;;;;;;3.54;100.00;99216.25;4241989;28;20338;-70
2024/01/02 05:53:10;;;;;;;3.60;1.67;;;;;;;3.44;100.00;99210.88;4228849;28;21048;-72
2024/01/02 05:55:37;;;;;;;6.03;2.17;;;;;;;3.44;100.00;99210.88;4240242;28;20401;-72
2024/01/02 05:58:03;;;;;;;1.57;1.37;;;;;;;3.40;100.00;99222.81;4248003;28;20230;-71
2024/01/02 06:00:30;;;;;;;0.57;0.57;;;;;;;3.37;100.00;99218.56;4251328;28;21831;-72
2024/01/02 06:02:58;;;;;;;1.23;1.10;;;;;;;3.37;100.00;99215.88;4241402;28;23516;-71
2024/01/02 06:05:24;;;;;;;1.90;0.77;;;;;;;3.38;100.00;99214.91;4236955;28;20335;-73
2024/01/02 06:07:51;;;;;;;2.30;0.57;;;;;;;3.37;100.00;99223.91;4238838;28;20260;-71
2024/01/02 06:10:17;;;;;;;4.17;1.03;;;;;;;3.37;100.00;99215.88;4241667;28;20289;-70
2024/01/02 06:12:44;;;;;;;9.97;3.97;;;;;;;3.39;100.00;99221.97;4235004;28;20462;-72
2024/01/02 06:15:13;;;;;;;3.80;2.03;;;;;;;3.37;100.00;99218.56;4241794;28;20343;-72
2024/01/02 06:17:44;;;;;;;2.40;0.60;;;;;;;3.42;100.00;99215.50;4236230;28;20227;-72
2024/01/02 06:20:11;;;;;;;0.67;0.67;;;;;;;3.40;100.00;99226.31;4240472;28;20409;-73
2024/01/02 06:22:38;;;;;;;0.70;0.70;;;;;;;3.48;100.00;99226.53;4219604;28;20231;-71
2024/01/02 06:25:08;;;;;;;8.37;3.40;;;;;;;3.40;100.00;99225.50;4235209;28;22052;-72
2024/01/02 06:27:35;;;;;;;4.53;1.57;;;;;;;3.37;100.00;99229.25;4238400;28;20222;-73
2024/01/02 06:30:06;;;;;;;2.00;1.47;;;;;;;3.39;100.00;99229.16;4241784;28;20238;-72
2024/01/02 06:32:33;;;;;;;20.30;5.70;;;;;;;3.39;100.00;99232.66;4245484;28;20241;-72
2024/01/02 06:35:00;;;;;;;2.10;1.23;;;;;;;3.42;100.00;99228.88;4234375;28;21646;-73
2024/01/02 06:37:28;;;;;;;3.20;2.50;;;;;;;3.36;100.00;99235.56;4240695;28;21506;-72
2024/01/02 06:39:55;;;;;;;3.90;2.33;;;;;;;3.49;100.00;99232.72;4238638;28;20235;-73
2024/01/02 06:42:21;;;;;;;8.97;3.50;;;;;;;3.41;100.00;99229.84;4227765;28;20247;-73
2024/01/02 06:44:48;;;;;;;7.93;3.07;;;;;;;3.36;100.00;99230.22;4242549;28;20261;-73
2024/01/02 06:47:15;;;;;;;3.03;1.90;;;;;;;3.31;100.00;99230.66;4259908;28;20387;-72
2024/01/02 06:49:44;;;;;;;7.40;3.33;;;;;;;3.36;100.00;99227.56;4232394;28;25439;-73
2024/01/02 06:52:11;;;;;;;1.73;0.40;;;;;;;3.31;100.00;99232.47;4239892;28;21073;-74
2024/01/02 06:54:38;;;;;;;0.23;0.23;;;;;;;3.30;100.00;99225.41;4244548;28;22220;-69
2024/01/02 06:57:04;;;;;;;14.77;5.53;;;;;;;3.33;100.00;99230.50;4243771;28;20427;-71
2024/01/02 06:59:31;;;;;;;0.77;0.07;;;;;;;3.33;100.00;99233.19;4237217;28;22150;-70
2024/01/02 07:01:58;;;;;;;5.37;1.40;;;;;;;3.32;100.00;99234.16;4244453;28;20399;-74
2024/01/02 07:04:25;;;;;;;0.20;0.20;;;;;;;3.38;100.00;99233.63;4261503;28;25197;-72
2024/01/02 07:06:52;;;;;;;2.20;1.03;;;;;;;3.42;100.00;99226.19;4229233;28;20230;-70
2024/01/02 07:09:20;;;;;;;23.97;5.87;;;;;;;3.40;100.00;99229.00;4248199;28;20584;-68
2024/01/02 07:11:47;;;;;;;2.10;1.20;;;;;;;3.27;100.00;99229.19;4224004;28;20833;-70
2024/01/02 07:14:14;;;;;;;4.47;1.60;;;;;;;3.36;100.00;99232.06;4241749;28;20639;-70
2024/01/02 07:16:41;;;;;;;0.60;0.33;;;;;;;3.37;100.00;99231.09;4248908;28;21110;-69
2024/01/02 07:19:07;;;;;;;1.80;1.50;;;;;;;3.34;100.00;99226.88;4244126;28;20393;-72
2024/01/02 07:21:34;;;;;;;19.40;3.43;;;;;;;3.29;100.00;99219.22;4242331;28;21633;-69
2024/01/02 07:24:01;;;;;;;8.63;4.13;;;;;;;3.32;100.00;99226.97;4247926;28;20233;-67
2024/01/02 07:26:28;;;;;;;3.53;1.73;;;;;;;3.29;100.00;99223.72;4260747;28;22272;-70
2024/01/02 07:28:55;;;;;;;3.30;2.93;;;;;;;3.36;100.00;99221.38;4230990;28;20223;-68
2024/01/02 07:31:22;;;;;;;4.57;1.73;;;;;;;3.25;100.00;99217.78;4250695;28;22824;-69
2024/01/02 07:33:49;;;;;;;0.10;0.10;;;;;;;3.30;100.00;99226.28;4268880;28;20341;-67
2024/01/02 07:36:19;;;;;;;1.90;0.97;;;;;;;3.30;100.00;99228.94;4237576;28;20607;-69
2024/01/02 07:38:45;;;;;;;0.30;0.30;;;;;;;3.32;100.00;99220.78;4230790;28;21570;-69
2024/01/02 07:41:12;;;;;;;0.77;0.57;;;;;;;3.31;100.00;99225.31;4252354;28;21152;-68
2024/01/02 07:43:40;;;;;;;7.47;2.97;;;;;;;3.31;100.00;99227.09;4274877;28;20692;-68
2024/01/02 07:46:07;;;;;;;0.10;0.10;;;;;;;3.38;100.00;99236.31;4338385;28;20237;-71
2024/01/02 07:48:33;;;;;;;4.03;1.80;;;;;;;3.37;100.00;99225.75;4257136;28;20775;-69
2024/01/02 07:51:00;;;;;;;9.97;3.60;;;;;;;3.29;100.00;99221.91;4312722;28;20255;-69
2024/01/02 07:53:27;;;;;;;0.30;0.30;;;;;;;3.44;100.00;99225.06;4263830;28;20413;-69
2024/01/02 07:55:53;;;;;;;0.10;0.10;;;;;;;3.38;100.00;99227.44;4254411;28;20232;-72
2024/01/02 07:58:21;;;;;;;4.17;1.07;;;;;;;3.36;100.00;99226.72;4233955;28;20243;-70
2024/01/02 08:00:48;;;;;;;3.07;0.57;;;;;;;3.41;100.00;99230.72;4252654;28;21105;-70
2024/01/02 08:03:15;;;;;;;2.63;0.93;;;;;;;3.33;100.00;99238.53;4256149;28;21888;-69
2024/01/02 08:05:41;;;;;;;0.20;0.20;;;;;;;3.39;100.00;99232.66;4258981;28;20231;-69
2024/01/02 08:08:08;;;;;;;0.73;0.73;;;;;;;3.33;100.00;99234.03;4244198;28;20289;-71
2024/01/02 08:10:35;;;;;;;1.13;1.03;;;;;;;3.32;100.00;99237.66;4234486;28;20223;-67
2024/01/02 08:13:02;;;;;;;0.63;0.63;;;;;;;3.33;100.00;99238.53;4242054;28;20262;-72
2024/01/02 08:15:30;;;;;;;0.57;0.50;;;;;;;3.36;100.00;99232.91;4242781;28;20234;-72
2024/01/02 08:18:06;;;;;;;0.43;0.43;;;;;;;3.45;100.00;99236.66;4237376;28;25717;-67
2024/01/02 08:20:34;;;;;;;0.13;0.13;;;;;;;3.49;100.00;99236.25;4251700;28;20234;-69
2024/01/02 08:23:01;;;;;;;0.03;0.03;;;;;;;3.48;100.00;99225.66;4269606;28;20280;-69
2024/01/02 08:25:28;;;;;;;2.37;1.17;;;;;;;3.50;100.00;99229.06;4242227;28;20226;-70
2024/01/02 08:27:55;;;;;;;2.50;1.23;;;;;;;3.48;100.00;99217.63;4235629;28;20669;-70
2024/01/02 08:30:22;;;;;;;8.90;0.47;;;;;;;3.47;100.00;99226.66;4243419;28;20236;-71
2024/01/02 08:32:48;;;;;;;1.40;0.50;;;;;;;3.48;100.00;99226.53;4264471;28;21046;-70
2024/01/02 08:35:15;;;;;;;0.83;0.83;;;;;;;3.49;100.00;99235.38;4223800;28;20237;-70
2024/01/02 08:37:43;;;;;;;2.67;1.03;;;;;;;3.47;100.00;99229.34;4240682;28;21766;-70
2024/01/02 08:40:10;;;;;;;3.13;1.27;;;;;;;3.53;100.00;99223.47;4253947;28;20276;-72
2024/01/02 08:42:37;;;;;;;18.10;9.57;;;;;;;3.47;100.00;99227.50;4240318;28;22713;-72
2024/01/02 08:45:05;;;;;;;2.97;0.73;;;;;;;3.49;100.00;99233.56;4247259;28;20243;-72
2024/01/02 08:47:36;;;;;;;4.93;2.20;;;;;;;3.51;100.00;99232.59;4240909;28;20293;-69
2024/01/02 08:50:03;;;;;;;1.20;1.07;;;;;;;3.53;100.00;99236.84;4249880;28;20365;-70
2024/01/02 08:52:30;;;;;;;0.20;0.20;;;;;;;3.55;100.00;99234.03;4254010;28;20561;-69
2024/01/02 08:54:57;;;;;;;5.43;2.87;;;;;;;3.61;100.00;99220.09;4253793;28;21229;-69
2024/01/02 08:57:24;;;;;;;2.23;2.03;;;;;;;3.56;100.00;99235.72;4245222;28;23285;-71
2024/01/02 08:59:51;;;;;;;8.40;2.83;;;;;;;3.57;100.00;99227.53;4252980;28;21584;-69
2024/01/02 09:02:17;;;;;;;0.67;0.67;;;;;;;3.63;100.00;99235.03;4268997;28;20238;-71
2024/01/02 09:04:44;;;;;;;1.50;1.03;;;;;;;3.72;100.00;99227.19;4251382;28;24708;-72
2024/01/02 09:07:11;;;;;;;1.70;1.03;;;;;;;3.69;100.00;99228.31;4240501;28;20662;-70
2024/01/02 09:09:37;;;;;;;17.47;5.47;;;;;;;3.71;100.00;99233.53;4258228;28;20430;-71
2024/01/02 09:12:06;;;;;;;6.70;2.00;;;;;;;3.71;100.00;99238.88;4250641;28;21882;-69
2024/01/02 09:14:35;;;;;;;4.77;2.43;;;;;;;3.72;100.00;99233.41;4255480;28;20538;-75
2024/01/02 09:17:03;;;;;;;0.00;0.00;;;;;;;3.76;100.00;99237.50;4245954;28;20331;-74
2024/01/02 09:19:30;;;;;;;0.37;0.37;;;;;;;3.77;100.00;99244.56;4251190;28;20665;-74
2024/01/02 09:21:57;;;;;;;0.73;0.57;;;;;;;3.81;100.00;99251.31;4244832;28;21753;-73
2024/01/02 09:24:24;;;;;;;13.20;4.23;;;;;;;3.84;100.00;99247.56;4238034;28;21272;-71
2024/01/02 09:26:54;;;;;;;7.37;3.03;;;;;;;3.89;100.00;99248.00;4249788;28;20294;-70
2024/01/02 09:29:23;;;;;;;2.30;1.37;;;;;;;4.00;100.00;99243.56;4255638;28;20614;-72
2024/01/02 09:31:50;;;;;;;4.17;2.50;;;;;;;4.15;100.00;99244.00;4220166;28;20226;-70
2024/01/02 09:34:18;;;;;;;11.67;4.47;;;;;;;4.09;100.00;99240.91;4242922;28;21253;-73
2024/01/02 09:36:46;;;;;;;18.77;5.97;;;;;;;4.07;100.00;99250.91;4234285;28;20336;-70
2024/01/02 09:39:14;;;;;;;4.00;2.83;;;;;;;4.04;100.00;99236.94;4248315;28;21141;-69
2024/01/02 09:42:09;;;;;;;7.53;4.10;;;;;;;4.10;100.00;99244.41;4237566;28;20238;-72
2024/01/02 09:44:47;;;;;;;5.10;2.53;;;;;;;4.17;100.00;99253.59;4237407;28;20442;-69
2024/01/02 09:47:38;;;;;;;21.63;6.53;;;;;;;4.15;100.00;99255.59;4221091;28;22550;-70
2024/01/02 09:50:36;;;;;;;8.53;4.83;;;;;;;4.17;100.00;99260.81;4248996;28;20400;-71
2024/01/02 09:53:42;;;;;;;13.93;4.53;;;;;;;4.12;100.00;99251.31;4243683;28;20226;-69
2024/01/02 09:56:23;;;;;;;4.70;2.20;;;;;;;4.30;100.00;99247.19;4240901;28;21018;-71
2024/01/02 09:59:08;;;;;;;25.13;6.60;;;;;;;4.27;100.00;99256.31;4239431;28;20241;-63
2024/01/02 10:01:57;;;;;;;8.77;3.47;;;;;;;4.21;100.00;99248.81;4227128;28;20226;-73
2024/01/02 10:05:03;;;;;;;6.07;2.90;;;;;;;4.22;100.00;99259.41;4235226;28;20231;-74
2024/01/02 10:07:50;;;;;;;0.77;0.77;;;;;;;4.32;100.00;99261.25;4232578;28;20308;-73
2024/01/02 10:10:44;;;;;;;4.30;1.07;;;;;;;4.26;100.00;99260.00;4252536;28;20227;-73
2024/01/02 10:13:22;;;;;;;10.57;2.53;;;;;;;4.18;100.00;99247.25;4244038;28;21741;-74
2024/01/02 10:16:03;;;;;;;1.70;1.07;;;;;;;4.23;100.00;99246.84;4250423;28;20714;-72
2024/01/02 10:18:35;;;;;;;10.67;2.67;;;;;;;4.16;100.00;99241.19;4240568;28;20249;-72
2024/01/02 10:21:28;;;;;;;7.53;3.50;;;;;;;4.16;100.00;99235.81;4223245;28;21434;-75
2024/01/02 10:24:04;;;;;;;0.97;0.93;;;;;;;4.16;100.00;99233.16;4252087;28;20561;-72
2024/01/02 10:26:37;;;;;;;0.60;0.60;;;;;;;4.22;100.00;99229.94;4224563;28;20226;-69
2024/01/02 10:29:13;;;;;;;2.93;2.47;;;;;;;4.18;100.00;99222.31;4297619;28;20230;-73
2024/01/02 10:31:55;;;;;;;3.57;1.83;;;;;;;4.22;100.00;99216.56;4257063;28;21836;-72
2024/01/02 10:34:32;;;;;;;9.83;2.87;;;;;;;4.27;100.00;99216.13;4232707;28;25700;-70
2024/01/02 10:37:06;;;;;;;2.20;0.87;;;;;;;4.31;100.00;99208.66;4246396;28;20235;-74
2024/01/02 10:39:43;;;;;;;11.30;2.50;;;;;;;4.28;100.00;99209.78;4250019;28;21103;-76
2024/01/02 10:42:54;;;;;;;4.43;1.13;;;;;;;4.21;100.00;99200.59;4236952;28;21729;-72
2024/01/02 10:45:29;;;;;;;4.27;2.07;;;;;;;4.34;100.00;99203.91;4266416;28;20314;-75
2024/01/02 10:48:13;;;;;;;19.83;5.07;;;;;;;4.33;100.00;99195.97;4265029;28;20746;-77
2024/01/02 10:51:10;;;;;;;20.43;5.70;;;;;;;4.33;100.00;99196.84;4295796;28;20303;-74
2024/01/02 10:53:57;;;;;;;1.40;1.23;;;;;;;4.34;100.00;99190.50;4256257;28;20354;-73
2024/01/02 10:56:23;;;;;;;1.97;1.67;;;;;;;4.36;100.00;99190.34;4244883;28;20233;-74
2024/01/02 10:59:29;;;;;;;0.00;0.00;;;;;;;4.33;100.00;99186.13;4232017;28;20234;-73
2024/01/02 11:02:32;;;;;;;6.33;2.20;;;;;;;4.37;100.00;99176.81;4210276;28;20233;-74
2024/01/02 11:05:04;;;;;;;10.97;3.03;;;;;;;4.38;100.00;99186.56;4252066;28;20246;-54
2024/01/02 11:07:35;;;;;;;0.10;0.10;;;;;;;4.57;100.00;99184.91;4249405;28;20303;-70
2024/01/02 11:10:10;;;;;;;12.67;4.37;;;;;;;4.45;100.00;99184.19;4251473;28;20327;-74
2024/01/02 11:12:55;;;;;;;10.13;5.00;;;;;;;4.52;100.00;99185.31;4268023;28;20291;-73
2024/01/02 11:15:35;;;;;;;0.70;0.70;;;;;;;4.65;100.00;99179.66;4253226;28;21077;-74
2024/01/02 11:18:06;;;;;;;0.00;0.00;;;;;;;4.64;100.00;99178.00;4240516;28;20245;-72
2024/01/02 11:20:49;;;;;;;4.43;0.97;;;;;;;4.61;100.00;99183.63;4236138;28;20242;-72
2024/01/02 11:23:18;;;;;;;0.00;0.00;;;;;;;4.63;100.00;99180.78;4245831;28;21723;-73
2024/01/02 11:25:58;;;;;;;6.93;3.07;;;;;;;4.45;100.00;99181.50;4243807;28;22894;-73
2024/01/02 11:28:41;;;;;;;2.47;1.77;;;;;;;4.39;100.00;99180.22;4247859;28;20231;-73
2024/01/02 11:31:13;;;;;;;0.20;0.20;;;;;;;4.52;100.00;99179.09;4236115;28;20243;-75
2024/01/02 11:33:55;;;;;;;3.23;2.27;;;;;;;4.55;100.00;99173.47;4278229;28;20242;-71
2024/01/02 11:36:31;;;;;;;13.30;4.73;;;;;;;4.41;100.00;99177.38;4272526;28;20235;-72
2024/01/02 11:39:11;;;;;;;3.97;2.33;;;;;;;4.54;100.00;99174.44;4244619;28;20223;-71